Time;durP1;ratioP1;P1;durP2;ratioP2;P2;SDS_P1;SDS_P2;PMS_P1;PMS_P2;Temp;Humidity;BMP_temperature;BMP_pressure;BME280_temperature;BME280_humidity;BME280_pressure;Samples;Min_cycle;Max_cycle;Signal;HPM_P1;HPM_P2
2022/03/02 00:02:22;;;;;;;151.07;60.73;;;-6.00;92.90;;;;;;5114114;28;20051;-69
2022/03/02 00:04:48;;;;;;;138.90;53.80;;;-6.00;93.10;;;;;;5113878;28;20127;-67
2022/03/02 00:07:13;;;;;;;155.50;57.30;;;-6.00;92.60;;;;;;5115183;28;20430;-67
2022/03/02 00:09:39;;;;;;;149.43;59.33;;;-6.00;92.50;;;;;;5115162;28;20028;-70
2022/03/02 00:12:05;;;;;;;141.77;54.73;;;-6.10;92.80;;;;;;5112836;28;20169;-69
2022/03/02 00:14:31;;;;;;;127.03;51.30;;;-6.10;93.40;;;;;;5115104;28;20031;-69
2022/03/02 00:16:56;;;;;;;134.87;48.77;;;-6.10;93.70;;;;;;5114982;28;20031;-67
2022/03/02 00:19:22;;;;;;;133.87;49.03;;;-6.10;93.50;;;;;;5114926;28;20031;-67
2022/03/02 00:21:47;;;;;;;137.20;50.27;;;-6.10;92.70;;;;;;5114969;28;20473;-69
2022/03/02 00:24:13;;;;;;;103.23;42.33;;;-6.20;92.10;;;;;;5113578;28;20055;-68
2022/03/02 00:26:38;;;;;;;92.73;36.93;;;-6.20;92.50;;;;;;5113651;28;20020;-68
2022/03/02 00:29:05;;;;;;;82.27;34.00;;;-6.20;92.20;;;;;;5114903;28;20024;-67
2022/03/02 00:31:31;;;;;;;76.00;30.73;;;-6.20;92.70;;;;;;5114792;28;20100;-70
2022/03/02 00:33:57;;;;;;;65.00;27.27;;;-6.20;92.40;;;;;;5114655;28;20497;-69
2022/03/02 00:36:22;;;;;;;71.43;28.23;;;-6.30;91.70;;;;;;5114621;28;20061;-68
2022/03/02 00:38:49;;;;;;;63.43;28.83;;;-6.40;92.80;;;;;;5114690;28;20026;-68
2022/03/02 00:41:15;;;;;;;64.67;30.20;;;-6.40;94.30;;;;;;5097053;28;20031;-69
2022/03/02 00:43:40;;;;;;;87.13;37.43;;;-6.40;95.00;;;;;;5094128;28;20480;-71
2022/03/02 00:46:06;;;;;;;72.57;31.80;;;-6.40;95.50;;;;;;5094200;28;20055;-71
2022/03/02 00:48:32;;;;;;;71.60;31.83;;;-6.50;95.70;;;;;;5094068;28;20031;-69
2022/03/02 00:50:57;;;;;;;59.57;27.37;;;-6.50;96.70;;;;;;5094268;28;20067;-71
2022/03/02 00:53:23;;;;;;;54.20;25.40;;;-6.50;96.00;;;;;;5093943;28;20032;-69
2022/03/02 00:55:49;;;;;;;54.57;25.63;;;-6.50;94.80;;;;;;5093966;28;20077;-70
2022/03/02 00:58:14;;;;;;;55.03;25.60;;;-6.50;94.60;;;;;;5092701;28;20055;-70
2022/03/02 01:00:40;;;;;;;52.80;24.10;;;-6.50;94.70;;;;;;5093887;28;20019;-72
2022/03/02 01:03:06;;;;;;;55.83;27.00;;;-6.50;94.00;;;;;;5093949;28;20024;-68
2022/03/02 01:05:31;;;;;;;63.80;31.93;;;-6.50;93.80;;;;;;5093685;28;20020;-71
2022/03/02 01:07:57;;;;;;;66.43;29.93;;;-6.50;93.70;;;;;;5093816;28;20034;-69
2022/03/02 01:10:23;;;;;;;59.53;26.37;;;-6.50;94.10;;;;;;5093739;28;20023;-70
2022/03/02 01:12:48;;;;;;;69.33;30.67;;;-6.50;94.30;;;;;;5092296;28;20464;-71
2022/03/02 01:15:14;;;;;;;74.53;29.50;;;-6.50;94.50;;;;;;5093624;28;20023;-69
2022/03/02 01:17:40;;;;;;;64.57;28.27;;;-6.50;94.30;;;;;;5092298;28;20051;-69
2022/03/02 01:20:08;;;;;;;73.97;30.00;;;-6.60;93.20;;;;;;5092291;28;20024;-69
2022/03/02 01:22:34;;;;;;;75.87;29.60;;;-6.60;93.90;;;;;;5092292;28;20058;-71
2022/03/02 01:25:00;;;;;;;64.73;26.50;;;-6.60;94.20;;;;;;5093324;28;20031;-70
2022/03/02 01:27:26;;;;;;;80.00;28.20;;;-6.70;95.00;;;;;;5093427;28;20390;-72
2022/03/02 01:29:52;;;;;;;59.80;26.80;;;-6.70;94.70;;;;;;5093490;28;20027;-70
2022/03/02 01:32:18;;;;;;;68.37;26.93;;;-6.70;94.30;;;;;;5093371;28;20039;-72
2022/03/02 01:34:44;;;;;;;56.93;25.03;;;-6.70;94.10;;;;;;5093426;28;20032;-71
2022/03/02 01:37:10;;;;;;;60.07;24.43;;;-6.70;94.50;;;;;;5093308;28;20477;-69
2022/03/02 01:39:35;;;;;;;64.10;25.17;;;-6.70;94.80;;;;;;5092113;28;20025;-70
2022/03/02 01:42:01;;;;;;;67.10;27.90;;;-6.70;94.90;;;;;;5093286;28;20474;-69
2022/03/02 01:44:26;;;;;;;67.67;26.77;;;-6.70;95.40;;;;;;5092089;28;20023;-69
2022/03/02 01:46:52;;;;;;;64.93;26.77;;;-6.70;95.60;;;;;;5092084;28;20056;-69
2022/03/02 01:49:18;;;;;;;59.87;26.17;;;-6.70;95.50;;;;;;5093095;28;20056;-71
2022/03/02 01:51:43;;;;;;;49.80;23.40;;;-6.70;95.00;;;;;;5093285;28;20024;-72
2022/03/02 01:54:09;;;;;;;50.77;23.07;;;-6.70;95.00;;;;;;5092008;28;20113;-69
2022/03/02 01:56:35;;;;;;;42.23;21.13;;;-6.80;95.20;;;;;;5093289;28;20017;-70
2022/03/02 01:59:04;;;;;;;49.27;19.83;;;-6.80;95.50;;;;;;5092007;28;20048;-69
2022/03/02 02:01:31;;;;;;;43.50;20.97;;;-6.80;95.70;;;;;;5093229;28;20081;-71
2022/03/02 02:03:57;;;;;;;52.20;23.00;;;-6.80;95.80;;;;;;5075216;28;20111;-71
2022/03/02 02:06:22;;;;;;;62.67;26.67;;;-6.80;96.40;;;;;;5093113;28;20032;-71
2022/03/02 02:08:48;;;;;;;62.90;28.10;;;-6.80;98.30;;;;;;5092994;28;20085;-69
2022/03/02 02:11:14;;;;;;;69.73;28.03;;;-6.90;99.30;;;;;;5093108;28;20031;-69
2022/03/02 02:13:40;;;;;;;72.20;30.03;;;-6.80;99.90;;;;;;5092869;28;20036;-72
2022/03/02 02:16:07;;;;;;;72.83;30.83;;;-6.90;99.90;;;;;;5093134;28;20095;-71
2022/03/02 02:18:34;;;;;;;65.80;29.33;;;-6.80;99.90;;;;;;5093023;28;20091;-72
2022/03/02 02:21:05;;;;;;;70.53;30.73;;;-6.90;99.90;;;;;;5091754;28;20020;-71
2022/03/02 02:23:30;;;;;;;65.33;32.20;;;-6.90;99.90;;;;;;5093105;28;20016;-69
2022/03/02 02:25:56;;;;;;;68.93;28.23;;;-6.90;99.90;;;;;;5093124;28;20031;-69
2022/03/02 02:28:25;;;;;;;63.20;29.83;;;-6.90;99.90;;;;;;5093291;28;20024;-72
2022/03/02 02:30:53;;;;;;;65.30;27.77;;;-7.00;99.90;;;;;;5111841;28;20114;-69
2022/03/02 02:33:19;;;;;;;64.73;29.00;;;-7.00;99.90;;;;;;5113146;28;20038;-70
2022/03/02 02:35:44;;;;;;;56.17;26.90;;;-7.00;99.90;;;;;;5114145;28;20027;-70
2022/03/02 02:38:10;;;;;;;56.40;26.37;;;-7.00;99.90;;;;;;5117010;28;20102;-72
2022/03/02 02:40:36;;;;;;;59.07;26.00;;;-7.00;99.90;;;;;;5117057;28;20106;-71
2022/03/02 02:43:05;;;;;;;58.90;25.70;;;-6.90;99.90;;;;;;5115562;28;20015;-69
2022/03/02 02:45:30;;;;;;;53.77;26.03;;;-6.90;99.90;;;;;;5116921;28;20031;-71
2022/03/02 02:47:58;;;;;;;48.40;20.80;;;-6.80;99.90;;;;;;5116836;28;20081;-70
2022/03/02 02:50:28;;;;;;;52.60;23.97;;;-6.80;99.90;;;;;;5116702;28;20089;-72
2022/03/02 02:52:55;;;;;;;51.90;25.50;;;-6.80;99.90;;;;;;5116604;28;20114;-69
2022/03/02 02:55:22;;;;;;;53.23;25.37;;;-6.70;99.90;;;;;;5116701;28;20020;-72
2022/03/02 02:57:49;;;;;;;53.80;23.67;;;-6.70;99.90;;;;;;5116515;28;20098;-72
2022/03/02 03:00:18;;;;;;;52.27;25.03;;;-6.70;99.90;;;;;;5116621;28;20102;-71
2022/03/02 03:02:47;;;;;;;63.50;25.30;;;-6.70;99.90;;;;;;5116545;28;20035;-71
2022/03/02 03:05:14;;;;;;;61.07;25.97;;;-6.70;99.90;;;;;;5116297;28;20099;-69
2022/03/02 03:07:41;;;;;;;66.43;28.10;;;-6.70;99.90;;;;;;5115104;28;20401;-69
2022/03/02 03:10:08;;;;;;;74.47;30.83;;;-6.70;99.90;;;;;;5116383;28;20015;-69
2022/03/02 03:12:35;;;;;;;76.03;32.90;;;-6.70;99.90;;;;;;5116221;28;20075;-71
2022/03/02 03:15:02;;;;;;;78.37;33.73;;;-6.80;99.90;;;;;;5116380;28;20022;-71
2022/03/02 03:17:28;;;;;;;82.73;34.83;;;-6.80;99.90;;;;;;5116187;28;20031;-69
2022/03/02 03:19:53;;;;;;;66.07;26.33;;;-6.80;99.90;;;;;;5116387;28;20012;-70
2022/03/02 03:22:19;;;;;;;65.50;31.03;;;-6.70;99.90;;;;;;5116147;28;20034;-71
2022/03/02 03:24:44;;;;;;;66.97;32.17;;;-6.70;99.90;;;;;;5116047;27;20036;-69
2022/03/02 03:27:10;;;;;;;65.30;28.47;;;-6.70;99.90;;;;;;5115968;28;20055;-71
2022/03/02 03:29:36;;;;;;;59.03;26.57;;;-6.80;99.90;;;;;;5116083;28;20433;-71
2022/03/02 03:32:01;;;;;;;50.87;22.13;;;-6.70;99.90;;;;;;5115920;28;20065;-71
2022/03/02 03:34:27;;;;;;;42.27;19.73;;;-6.70;99.90;;;;;;5115846;28;20020;-70
2022/03/02 03:36:52;;;;;;;34.87;18.53;;;-6.60;99.90;;;;;;5114620;28;20020;-69
2022/03/02 03:39:19;;;;;;;44.67;19.67;;;-6.50;99.90;;;;;;5115872;28;20028;-69
2022/03/02 03:41:44;;;;;;;43.80;20.00;;;-6.50;99.90;;;;;;5115768;28;20015;-71
2022/03/02 03:44:10;;;;;;;38.60;18.77;;;-6.50;99.90;;;;;;5115688;28;20019;-68
2022/03/02 03:46:36;;;;;;;41.53;18.23;;;-6.40;99.90;;;;;;5115655;28;20016;-71
2022/03/02 03:49:02;;;;;;;38.87;19.23;;;-6.40;99.90;;;;;;5115501;28;20463;-69
2022/03/02 03:51:27;;;;;;;42.23;19.87;;;-6.50;99.90;;;;;;5115554;27;20460;-69
2022/03/02 03:53:53;;;;;;;38.33;19.10;;;-6.50;99.90;;;;;;5115442;28;20076;-69
2022/03/02 03:56:18;;;;;;;37.27;19.40;;;-6.50;99.90;;;;;;5114222;28;20515;-71
2022/03/02 03:58:44;;;;;;;39.17;18.80;;;-6.50;99.90;;;;;;5115384;28;20031;-71
2022/03/02 04:01:09;;;;;;;38.73;19.90;;;-6.50;99.90;;;;;;5115378;28;20510;-70
2022/03/02 04:03:35;;;;;;;43.70;19.03;;;-6.60;99.90;;;;;;5115373;28;20034;-69
2022/03/02 04:06:01;;;;;;;43.43;19.93;;;-6.60;99.90;;;;;;5115286;28;20505;-72
2022/03/02 04:08:27;;;;;;;45.37;21.07;;;-6.60;99.90;;;;;;5115155;28;20024;-70
2022/03/02 04:10:53;;;;;;;34.47;20.43;;;-6.70;99.90;;;;;;5115162;28;20023;-69
2022/03/02 04:13:18;;;;;;;37.40;19.07;;;-6.70;99.90;;;;;;5113785;28;20537;-68
2022/03/02 04:15:44;;;;;;;48.17;23.23;;;-6.70;99.90;;;;;;5115029;28;20399;-70
2022/03/02 04:18:09;;;;;;;45.37;21.37;;;-6.70;99.90;;;;;;5114971;28;20046;-72
2022/03/02 04:20:35;;;;;;;66.30;28.13;;;-6.80;99.90;;;;;;5114995;28;20445;-69
2022/03/02 04:23:02;;;;;;;71.97;26.17;;;-6.80;99.90;;;;;;5114866;28;20419;-72
2022/03/02 04:25:28;;;;;;;65.17;26.93;;;-6.90;99.90;;;;;;5114792;27;20059;-72
2022/03/02 04:27:53;;;;;;;61.40;24.53;;;-6.90;99.90;;;;;;5114948;27;20047;-68
2022/03/02 04:30:19;;;;;;;43.43;20.33;;;-6.90;99.90;;;;;;5114775;28;20035;-69
2022/03/02 04:32:45;;;;;;;42.20;18.47;;;-6.90;99.90;;;;;;5113381;28;20084;-69
2022/03/02 04:35:12;;;;;;;39.70;20.70;;;-7.00;99.90;;;;;;5113401;28;20020;-72
2022/03/02 04:37:39;;;;;;;33.97;18.77;;;-6.90;99.90;;;;;;5114605;28;20028;-68
2022/03/02 04:40:08;;;;;;;36.60;19.13;;;-6.90;99.90;;;;;;5114601;28;20076;-68
2022/03/02 04:42:34;;;;;;;34.87;17.80;;;-6.90;99.90;;;;;;5114580;28;20020;-72
2022/03/02 04:44:59;;;;;;;33.57;17.23;;;-6.90;99.90;;;;;;5114640;28;20532;-69
2022/03/02 04:47:25;;;;;;;35.13;16.80;;;-6.90;99.90;;;;;;5114767;28;20107;-68
2022/03/02 04:49:51;;;;;;;36.80;18.17;;;-6.90;99.90;;;;;;5112385;28;20048;-70
2022/03/02 04:52:17;;;;;;;39.93;18.77;;;-6.90;99.90;;;;;;5112756;28;20504;-69
2022/03/02 04:57:28;;;;;;;48.37;21.60;;;-6.90;99.90;;;;;;5114352;28;20071;-69
2022/03/02 04:59:54;;;;;;;40.80;19.10;;;-6.90;99.90;;;;;;5113881;28;20047;-70
2022/03/02 05:02:20;;;;;;;45.77;21.10;;;-6.90;99.90;;;;;;5114101;28;20465;-68
2022/03/02 05:04:45;;;;;;;48.87;21.70;;;-6.90;99.90;;;;;;5113956;28;20536;-70
2022/03/02 05:07:11;;;;;;;47.30;19.63;;;-7.00;99.90;;;;;;5113842;28;20016;-71
2022/03/02 05:09:37;;;;;;;56.53;25.33;;;-7.00;99.90;;;;;;5113923;28;20019;-72
2022/03/02 05:12:03;;;;;;;143.80;53.87;;;-7.00;99.90;;;;;;5113820;28;20480;-71
2022/03/02 05:14:29;;;;;;;98.27;37.87;;;-7.00;99.90;;;;;;5113951;28;20023;-71
2022/03/02 05:16:55;;;;;;;55.07;23.33;;;-7.00;99.90;;;;;;5112710;28;20055;-69
2022/03/02 05:19:21;;;;;;;52.23;23.10;;;-7.00;99.90;;;;;;5113978;28;20066;-69
2022/03/02 05:21:47;;;;;;;58.77;25.50;;;-7.00;99.90;;;;;;5113981;28;20366;-69
2022/03/02 05:24:16;;;;;;;77.57;32.03;;;-7.10;99.90;;;;;;5113912;28;20055;-69
2022/03/02 05:26:42;;;;;;;62.33;28.23;;;-7.10;99.90;;;;;;5113932;28;20072;-71
2022/03/02 05:29:08;;;;;;;47.33;21.00;;;-7.10;99.90;;;;;;5113929;28;20110;-72
2022/03/02 05:31:34;;;;;;;44.53;20.27;;;-7.10;99.90;;;;;;5113931;28;20019;-72
2022/03/02 05:34:00;;;;;;;46.90;18.87;;;-7.20;99.90;;;;;;5113768;28;20615;-72
2022/03/02 05:36:26;;;;;;;43.47;19.57;;;-7.20;99.90;;;;;;5113782;28;20034;-71
2022/03/02 05:38:52;;;;;;;47.83;19.63;;;-7.20;99.90;;;;;;5112474;28;20384;-68
2022/03/02 05:41:18;;;;;;;45.20;19.73;;;-7.20;99.90;;;;;;5112494;28;20016;-71
2022/03/02 05:43:44;;;;;;;49.97;21.17;;;-7.10;99.90;;;;;;5113749;28;20027;-72
2022/03/02 05:46:09;;;;;;;49.47;20.97;;;-7.00;99.90;;;;;;5113574;28;20024;-71
2022/03/02 05:48:36;;;;;;;36.13;18.53;;;-7.00;99.90;;;;;;5113618;28;20015;-70
2022/03/02 05:51:02;;;;;;;47.93;19.90;;;-7.00;99.90;;;;;;5113698;28;20047;-70
2022/03/02 05:53:27;;;;;;;45.63;20.70;;;-7.00;99.90;;;;;;5113486;28;20035;-68
2022/03/02 05:55:53;;;;;;;37.47;17.90;;;-7.00;99.90;;;;;;5113572;28;20030;-69
2022/03/02 05:58:18;;;;;;;50.10;19.90;;;-6.90;99.90;;;;;;5112295;28;20024;-70
2022/03/02 06:00:44;;;;;;;42.57;20.77;;;-6.90;99.90;;;;;;5113279;28;20038;-72
2022/03/02 06:03:09;;;;;;;58.47;20.80;;;-6.90;99.90;;;;;;5113320;28;20088;-68
2022/03/02 06:05:35;;;;;;;48.33;23.63;;;-6.80;99.90;;;;;;5112363;28;20031;-70
2022/03/02 06:08:01;;;;;;;51.73;22.67;;;-6.80;99.90;;;;;;5113916;28;20032;-69
2022/03/02 06:10:26;;;;;;;49.20;22.20;;;-6.70;99.90;;;;;;5114050;28;20062;-70
2022/03/02 06:12:52;;;;;;;58.83;24.47;;;-6.60;99.90;;;;;;5115971;28;20040;-71
2022/03/02 06:15:18;;;;;;;58.40;23.13;;;-6.60;99.90;;;;;;5117510;28;20039;-71
2022/03/02 06:17:44;;;;;;;63.00;26.27;;;-6.60;99.90;;;;;;5117514;28;20405;-72
2022/03/02 06:20:11;;;;;;;63.10;27.47;;;-6.50;99.90;;;;;;5104768;27;20035;-67
2022/03/02 06:22:37;;;;;;;87.53;37.40;;;-6.40;99.90;;;;;;5094918;28;20024;-69
2022/03/02 06:25:06;;;;;;;135.57;50.17;;;-6.30;99.90;;;;;;5095120;27;20043;-69
2022/03/02 06:27:33;;;;;;;105.23;38.80;;;-6.20;99.90;;;;;;5099866;28;20016;-71
2022/03/02 06:29:58;;;;;;;85.73;33.83;;;-6.10;99.90;;;;;;5116022;27;20036;-67
2022/03/02 06:32:24;;;;;;;97.83;37.70;;;-6.00;99.90;;;;;;5116240;28;20050;-66
2022/03/02 06:34:50;;;;;;;96.67;37.50;;;-5.90;99.90;;;;;;5114660;27;20050;-67
2022/03/02 06:37:16;;;;;;;71.37;31.13;;;-5.70;99.90;;;;;;5116240;28;20026;-67
2022/03/02 06:39:42;;;;;;;65.43;29.43;;;-5.60;99.90;;;;;;5116045;27;20028;-70
2022/03/02 06:42:23;;;;;;;76.13;30.30;;;-5.40;99.90;;;;;;5113989;27;20034;-67
2022/03/02 06:44:56;;;;;;;80.63;35.17;;;-5.20;99.90;;;;;;5116932;28;20051;-70
2022/03/02 06:47:26;;;;;;;165.43;45.92;;;-5.00;99.90;;;;;;5116761;28;20022;-70
2022/03/02 06:50:10;;;;;;;107.03;40.05;;;-4.80;99.90;;;;;;5115442;28;20043;-68
2022/03/02 06:52:37;;;;;;;96.45;34.72;;;-4.60;99.90;;;;;;5116737;28;20028;-67
2022/03/02 06:55:08;;;;;;;203.60;69.85;;;-4.40;99.90;;;;;;5115445;28;20115;-70
2022/03/02 06:57:35;;;;;;;160.20;56.97;;;-4.20;99.90;;;;;;5116710;28;20020;-68
2022/03/02 07:00:03;;;;;;;144.27;55.75;;;-3.90;99.90;;;;;;5116621;28;20103;-67
2022/03/02 07:03:01;;;;;;;249.02;86.93;;;-3.70;99.90;;;;;;5115890;28;20500;-70
2022/03/02 07:05:26;;;;;;;81.20;28.45;;;-3.50;99.90;;;;;;5116399;28;20028;-67
2022/03/02 07:07:52;;;;;;;68.50;25.63;;;-3.00;88.50;;;;;;5116296;28;20082;-67
2022/03/02 07:10:18;;;;;;;21.40;12.77;;;-2.70;84.00;;;;;;5116314;28;20431;-68
2022/03/02 07:12:44;;;;;;;23.15;11.25;;;-2.20;77.10;;;;;;5104270;28;20111;-72
2022/03/02 07:15:11;;;;;;;21.83;11.13;;;-2.00;78.50;;;;;;5111341;28;20027;-72
2022/03/02 07:17:37;;;;;;;24.45;11.75;;;-1.70;74.40;;;;;;5116238;27;20031;-72
2022/03/02 07:20:08;;;;;;;25.77;12.55;;;-1.50;72.00;;;;;;5116164;28;20020;-72
2022/03/02 07:22:56;;;;;;;35.65;15.48;;;-1.30;71.30;;;;;;5115528;28;20019;-72
2022/03/02 07:25:26;;;;;;;44.67;20.98;;;-1.20;70.40;;;;;;5114087;28;20115;-73
2022/03/02 07:27:55;;;;;;;34.80;18.27;;;-1.10;69.10;;;;;;5115937;28;20035;-70
2022/03/02 07:30:21;;;;;;;25.38;15.02;;;-1.00;69.80;;;;;;5115806;28;20031;-73
2022/03/02 07:32:47;;;;;;;38.55;16.25;;;-1.00;68.40;;;;;;5109336;28;20036;-72
2022/03/02 07:35:16;;;;;;;25.73;16.08;;;-1.00;68.00;;;;;;5114546;28;20019;-70
2022/03/02 07:37:46;;;;;;;37.88;15.23;;;-0.90;68.00;;;;;;5115530;28;20413;-69
2022/03/02 07:40:13;;;;;;;19.75;12.13;;;-0.80;67.80;;;;;;5115670;28;20024;-70
2022/03/02 07:42:38;;;;;;;26.92;15.57;;;-0.80;67.40;;;;;;5115411;28;20026;-69
2022/03/02 07:45:05;;;;;;;31.02;14.65;;;-0.80;67.20;;;;;;5114326;28;20024;-72
2022/03/02 07:47:31;;;;;;;21.40;13.10;;;-0.60;67.70;;;;;;5114218;28;20483;-72
2022/03/02 07:49:56;;;;;;;25.73;12.32;;;-0.50;67.60;;;;;;5114229;28;20059;-73
2022/03/02 07:52:26;;;;;;;25.80;11.95;;;-0.40;66.50;;;;;;5114079;28;20032;-72
2022/03/02 07:55:02;;;;;;;24.42;12.35;;;-0.30;67.30;;;;;;5114243;28;20030;-69
2022/03/02 07:57:30;;;;;;;19.55;9.70;;;-0.20;65.00;;;;;;5115432;28;20028;-70
2022/03/02 07:59:58;;;;;;;19.60;10.68;;;-0.10;64.50;;;;;;5115511;28;20407;-72
2022/03/02 08:02:24;;;;;;;21.77;9.75;;;0.00;64.50;;;;;;5114211;28;20020;-69
2022/03/02 08:04:54;;;;;;;15.98;10.60;;;0.20;63.90;;;;;;5115270;28;20525;-73
2022/03/02 08:07:20;;;;;;;16.58;10.20;;;0.10;62.80;;;;;;5115217;28;20027;-70
2022/03/02 08:09:46;;;;;;;19.75;11.35;;;0.30;63.10;;;;;;5115314;28;20044;-72
2022/03/02 08:12:12;;;;;;;18.13;10.25;;;0.40;62.70;;;;;;5115150;28;20066;-72
2022/03/02 08:14:38;;;;;;;21.15;10.10;;;0.50;62.70;;;;;;5115172;28;20053;-71
2022/03/02 08:17:04;;;;;;;20.52;11.52;;;0.60;62.30;;;;;;5113860;28;20480;-73
2022/03/02 08:19:31;;;;;;;20.30;9.82;;;0.50;62.10;;;;;;5113698;28;20031;-73
2022/03/02 08:22:05;;;;;;;17.27;10.32;;;0.60;60.70;;;;;;5113546;28;20027;-71
2022/03/02 08:24:33;;;;;;;16.95;9.85;;;0.60;60.90;;;;;;5114743;28;20027;-71
2022/03/02 08:27:02;;;;;;;18.98;10.85;;;0.70;61.00;;;;;;5114689;28;20024;-68
2022/03/02 08:29:30;;;;;;;17.98;9.85;;;0.80;60.80;;;;;;5113527;28;20024;-69
2022/03/02 08:32:02;;;;;;;23.55;9.77;;;0.70;60.90;;;;;;5114732;28;20019;-73
2022/03/02 08:34:29;;;;;;;13.32;8.32;;;0.90;60.60;;;;;;5112636;27;20030;-73
2022/03/02 08:36:55;;;;;;;16.45;8.48;;;0.70;59.60;;;;;;5113382;28;20038;-71
2022/03/02 08:39:22;;;;;;;17.20;9.05;;;0.90;59.50;;;;;;5114656;28;20431;-71
2022/03/02 08:41:51;;;;;;;17.38;9.18;;;0.90;58.70;;;;;;5114641;28;20436;-71
2022/03/02 08:44:17;;;;;;;15.50;8.88;;;1.00;58.70;;;;;;5114513;28;20518;-73
2022/03/02 08:46:46;;;;;;;12.15;7.65;;;1.00;58.00;;;;;;5114533;28;20015;-71
2022/03/02 08:49:16;;;;;;;9.40;6.25;;;1.10;57.70;;;;;;5114188;28;20056;-73
2022/03/02 08:51:42;;;;;;;15.27;7.43;;;1.00;56.70;;;;;;5114142;28;20015;-73
2022/03/02 08:54:11;;;;;;;14.93;7.75;;;1.10;56.60;;;;;;5113253;28;20027;-73
2022/03/02 08:56:38;;;;;;;15.18;8.55;;;1.20;56.60;;;;;;5112626;28;20129;-73
2022/03/02 08:59:05;;;;;;;18.80;10.70;;;1.30;56.70;;;;;;5113524;28;20020;-69
2022/03/02 09:01:31;;;;;;;13.20;8.68;;;1.30;56.50;;;;;;5112832;28;20026;-69
2022/03/02 09:03:59;;;;;;;12.85;6.85;;;1.30;56.30;;;;;;5114305;28;20377;-70
2022/03/02 09:06:29;;;;;;;10.88;6.45;;;1.20;56.10;;;;;;5112611;28;20035;-69
2022/03/02 09:08:55;;;;;;;10.85;6.95;;;1.20;54.80;;;;;;5114280;27;20028;-69
2022/03/02 09:11:21;;;;;;;11.80;6.97;;;1.30;53.80;;;;;;5114293;28;20103;-71
2022/03/02 09:13:49;;;;;;;11.95;7.55;;;1.40;53.70;;;;;;5114015;28;20036;-69
2022/03/02 09:16:15;;;;;;;14.23;7.28;;;1.40;54.40;;;;;;5114084;28;20012;-69
2022/03/02 09:18:41;;;;;;;8.85;6.15;;;1.60;54.80;;;;;;5114063;28;20023;-69
2022/03/02 09:21:08;;;;;;;10.57;6.40;;;1.70;54.10;;;;;;5113574;28;20020;-69
2022/03/02 09:23:40;;;;;;;11.40;7.63;;;1.70;53.70;;;;;;5112633;28;20016;-69
2022/03/02 09:26:09;;;;;;;10.98;5.70;;;1.70;53.80;;;;;;5114029;28;20024;-72
2022/03/02 09:28:38;;;;;;;10.60;6.75;;;1.70;53.30;;;;;;5112705;28;20024;-69
2022/03/02 09:31:09;;;;;;;12.75;6.20;;;1.70;53.30;;;;;;5113881;27;20094;-68
2022/03/02 09:33:36;;;;;;;7.60;6.47;;;1.70;54.00;;;;;;5113883;28;20181;-71
2022/03/02 09:36:05;;;;;;;14.05;7.07;;;1.70;53.60;;;;;;5113903;28;20026;-69
2022/03/02 09:38:33;;;;;;;11.07;6.93;;;1.70;54.00;;;;;;5113776;28;20102;-69
2022/03/02 09:41:07;;;;;;;15.05;7.78;;;1.70;52.60;;;;;;5112568;28;20015;-71
2022/03/02 09:43:35;;;;;;;11.68;7.28;;;1.70;53.60;;;;;;5113824;28;20531;-68
2022/03/02 09:46:05;;;;;;;12.55;6.78;;;1.90;53.80;;;;;;5119557;28;20016;-69
2022/03/02 09:48:33;;;;;;;12.70;7.35;;;1.90;53.50;;;;;;5120472;28;20026;-69
2022/03/02 09:51:08;;;;;;;13.05;7.20;;;2.00;53.80;;;;;;5120589;27;20040;-69
2022/03/02 09:53:35;;;;;;;12.80;7.53;;;1.90;52.90;;;;;;5120452;27;20442;-69
2022/03/02 09:56:06;;;;;;;12.68;7.88;;;1.80;52.90;;;;;;5120576;27;20019;-69
2022/03/02 09:58:38;;;;;;;10.68;6.90;;;1.90;53.10;;;;;;5120575;27;20019;-69
2022/03/02 10:01:08;;;;;;;11.30;7.13;;;2.00;51.90;;;;;;5120396;27;20027;-69
2022/03/02 10:03:37;;;;;;;12.32;7.22;;;2.00;51.80;;;;;;5120510;27;20024;-71
2022/03/02 10:06:05;;;;;;;11.82;6.35;;;2.10;51.70;;;;;;5119130;28;20061;-69
2022/03/02 10:08:35;;;;;;;11.88;7.28;;;1.90;51.00;;;;;;5119171;28;20122;-69
2022/03/02 10:11:06;;;;;;;14.27;7.50;;;2.00;52.70;;;;;;5120370;27;20020;-71
2022/03/02 10:13:32;;;;;;;15.55;8.20;;;2.10;54.10;;;;;;5120290;27;20443;-70
2022/03/02 10:16:05;;;;;;;12.52;8.55;;;2.30;54.20;;;;;;5119113;27;20127;-72
2022/03/02 10:18:35;;;;;;;10.75;7.40;;;2.00;51.80;;;;;;5120259;27;20110;-71
2022/03/02 10:21:05;;;;;;;15.63;8.95;;;2.20;50.70;;;;;;5120259;27;20019;-71
2022/03/02 10:23:34;;;;;;;13.38;7.57;;;2.20;52.40;;;;;;5120261;27;20022;-70
2022/03/02 10:26:08;;;;;;;12.40;7.13;;;2.30;53.00;;;;;;5120161;27;20453;-70
2022/03/02 10:28:37;;;;;;;15.40;9.30;;;2.50;53.60;;;;;;5120210;27;20024;-68
2022/03/02 10:31:42;;;;;;;13.25;8.45;;;2.40;52.60;;;;;;5120191;27;20077;-69
2022/03/02 10:34:16;;;;;;;13.82;7.90;;;2.50;53.20;;;;;;5120018;27;20035;-72
2022/03/02 10:36:45;;;;;;;15.65;8.90;;;2.60;53.30;;;;;;5120158;27;20020;-72
2022/03/02 10:39:27;;;;;;;14.18;7.95;;;2.60;52.60;;;;;;5119993;27;20431;-70
2022/03/02 10:42:04;;;;;;;14.80;8.77;;;2.60;51.70;;;;;;5120002;27;20016;-71
2022/03/02 10:44:58;;;;;;;16.63;9.68;;;2.60;51.40;;;;;;5114972;27;20278;-69
2022/03/02 10:47:25;;;;;;;11.73;7.63;;;2.60;51.90;;;;;;5106580;28;20135;-71
2022/03/02 10:49:52;;;;;;;22.52;9.93;;;2.80;52.50;;;;;;5116849;28;20061;-69
2022/03/02 10:52:21;;;;;;;18.05;9.02;;;2.70;51.60;;;;;;5119789;27;20015;-69
2022/03/02 10:54:49;;;;;;;16.35;8.43;;;2.70;51.90;;;;;;5119873;27;20072;-69
2022/03/02 10:57:18;;;;;;;15.65;9.40;;;2.90;51.70;;;;;;5116641;27;20018;-69
2022/03/02 10:59:44;;;;;;;12.85;8.18;;;2.80;50.40;;;;;;5110006;28;20020;-68
2022/03/02 11:02:10;;;;;;;10.77;7.03;;;2.80;49.90;;;;;;5106707;28;20024;-69
2022/03/02 11:04:37;;;;;;;12.80;7.93;;;2.90;50.90;;;;;;5102946;28;20149;-69
2022/03/02 11:07:04;;;;;;;15.38;8.23;;;2.90;50.40;;;;;;5113825;28;20047;-69
2022/03/02 11:09:34;;;;;;;14.68;8.48;;;2.80;50.20;;;;;;5114561;28;20103;-69
2022/03/02 11:12:01;;;;;;;18.15;10.90;;;2.70;50.30;;;;;;5113693;28;20103;-72
2022/03/02 11:14:26;;;;;;;11.45;8.13;;;2.70;50.30;;;;;;5112491;28;20084;-72
2022/03/02 11:17:12;;;;;;;12.73;8.05;;;2.70;50.50;;;;;;5113457;28;20031;-72
2022/03/02 11:19:45;;;;;;;17.73;9.07;;;2.70;50.20;;;;;;5115364;28;20027;-72
2022/03/02 11:22:12;;;;;;;;;;;2.80;49.90;;;;;;5115872;28;20141;-72
2022/03/02 11:24:39;;;;;;;14.60;8.85;;;2.80;49.50;;;;;;5115219;28;19904;-72
2022/03/02 11:27:04;;;;;;;16.20;8.63;;;2.80;50.30;;;;;;5115176;28;20039;-72
2022/03/02 11:29:31;;;;;;;15.77;8.93;;;2.70;50.50;;;;;;5115107;28;20481;-72
2022/03/02 11:31:57;;;;;;;13.27;8.23;;;2.80;51.10;;;;;;5113663;28;20026;-72
2022/03/02 11:34:28;;;;;;;14.40;7.88;;;2.70;50.40;;;;;;5114910;28;20040;-72
2022/03/02 11:36:58;;;;;;;14.10;8.50;;;2.90;50.70;;;;;;5113008;28;20039;-72
2022/03/02 11:39:26;;;;;;;14.45;8.10;;;3.00;50.60;;;;;;5111910;28;20054;-72
2022/03/02 11:41:58;;;;;;;13.35;8.15;;;3.10;50.30;;;;;;5114758;28;20030;-72
2022/03/02 11:44:34;;;;;;;12.20;7.90;;;3.00;49.50;;;;;;5114933;28;20484;-72
2022/03/02 11:47:06;;;;;;;12.35;8.60;;;3.20;49.70;;;;;;5114064;28;20020;-72
2022/03/02 11:49:49;;;;;;;12.73;8.33;;;3.20;50.00;;;;;;5113736;28;20131;-72
2022/03/02 11:52:24;;;;;;;18.27;8.48;;;3.20;48.70;;;;;;5113012;28;20473;-72
2022/03/02 11:55:05;;;;;;;17.08;7.93;;;3.30;48.60;;;;;;5114800;28;20136;-72
2022/03/02 11:57:39;;;;;;;15.07;8.27;;;3.30;47.90;;;;;;5114692;28;20031;-72
2022/03/02 12:00:26;;;;;;;13.68;8.02;;;3.30;48.00;;;;;;5114536;28;20153;-69
2022/03/02 12:02:57;;;;;;;13.88;8.63;;;3.30;47.50;;;;;;5113317;28;20062;-69
2022/03/02 12:05:31;;;;;;;15.73;9.48;;;3.30;47.20;;;;;;5114542;28;20020;-70
2022/03/02 12:08:11;;;;;;;11.88;7.43;;;3.30;46.70;;;;;;5113413;28;20414;-69
2022/03/02 12:10:39;;;;;;;12.95;7.13;;;3.30;46.30;;;;;;5112604;28;20093;-69
2022/03/02 12:13:05;;;;;;;10.77;7.13;;;3.30;46.10;;;;;;5114395;28;20030;-71
2022/03/02 12:15:53;;;;;;;15.02;7.90;;;3.40;45.60;;;;;;5115198;27;20028;-71
2022/03/02 12:18:20;;;;;;;17.67;9.75;;;3.40;44.90;;;;;;5115026;28;20020;-71
2022/03/02 12:20:56;;;;;;;13.68;7.95;;;3.30;45.70;;;;;;5113908;28;20024;-69
2022/03/02 12:23:26;;;;;;;18.73;9.35;;;3.20;45.80;;;;;;5107501;28;20466;-68
2022/03/02 12:25:53;;;;;;;14.82;8.88;;;3.30;46.30;;;;;;5093132;27;20111;-68
2022/03/02 12:28:20;;;;;;;18.98;9.88;;;3.20;46.50;;;;;;5106441;28;20039;-69
2022/03/02 12:30:46;;;;;;;19.88;9.35;;;3.20;46.90;;;;;;5113236;27;20011;-69
2022/03/02 12:33:11;;;;;;;12.80;8.00;;;3.40;46.90;;;;;;5111742;28;20047;-69
2022/03/02 12:35:38;;;;;;;20.98;10.32;;;3.40;46.70;;;;;;5100169;28;20028;-68
2022/03/02 12:38:08;;;;;;;21.35;10.02;;;3.40;46.10;;;;;;5093084;27;20450;-69
2022/03/02 12:40:40;;;;;;;13.55;7.45;;;3.40;46.20;;;;;;5113359;28;20092;-69